Soleil Weather Down

Nearby METAR Reports

 

KCNI - Canton/Cherokee, Georgia, USA
Distance from station: ENE 6mi, 10km
Updated: Thu, 21-Feb-2019 12:35am EST
Drizzle, Overcast
Drizzle, Overcast
 Wind from E
Wind: E 6 mph , 9 km/h
Barometer: 30.10 inHg , 1019.3 hPa
Summary: Drizzle
Clouds: Overcast
Visibility: 7 miles , 11 km
Cloud details: Overcast 200 ft
2019/02/21 05:35 KCNI 210535Z AUTO 09005KT 7SM DZ OVC002 A3010 RMK AO2
KRYY - Marietta Mccolum, Georgia, USA
Distance from station: SSW 18mi, 29km
Updated: Thu, 21-Feb-2019 12:33am EST
Light rain, Overcast
Light rain, Overcast
 Wind from E
Wind: E 8 mph , 13 km/h
Temperature: 43°F , 6°C
Wind Chill: 38°F , 3°C
Dew Point: 41°F , 5°C
Humidity: 93%
Barometer: 30.09 inHg , 1019 hPa
Summary: Light rain
Clouds: Overcast
Visibility: 10 miles , 16 km
Cloud details: Overcast 600 ft
2019/02/21 05:33 KRYY 210533Z AUTO 09007KT 060V120 10SM -RA OVC006 06/05 A3009 RMK AO2 LTG DSNT W P0003
KVPC - Cartersville, Georgia, USA
Distance from station: WSW 22mi, 35km
Updated: Thu, 21-Feb-2019 12:23am EST
Light rain, Mist, Overcast
Light rain, Mist, Overcast
 Wind from E
Wind: E 9 mph , 15 km/h, Gust: 17 mph , 28 km/h
Temperature: 45°F , 7°C
Wind Chill: 40°F , 4°C
Dew Point: 43°F , 6°C
Humidity: 93%
Barometer: 30.06 inHg , 1017.9 hPa
Summary: Light rain, Mist
Clouds: Overcast
Visibility: 6 miles , 10 km
Cloud details: Partly cloudy 700 ft
Mostly cloudy 3700 ft
Overcast 8000 ft
2019/02/21 05:23 KVPC 210523Z AUTO 10008G15KT 6SM -RA BR SCT007 BKN037 OVC080 07/06 A3006 RMK AO2 LTG DSNT SW P0008 T00670056
 
KMGE - Dobbins Afb/Mari, Georgia, USA
Distance from station: S 24mi, 39km
Updated: Thu, 21-Feb-2019 12:26am EST
Light rain, Overcast
Light rain, Overcast
 Wind from E
Wind: E 7 mph , 11 km/h
Temperature: 41°F , 5°C
Wind Chill: 36°F , 2°C
Dew Point: 41°F , 5°C
Humidity: 100%
Barometer: 30.09 inHg , 1019 hPa
Summary: Light rain
Clouds: Overcast
Visibility: 9 miles , 14 km
Cloud details: Overcast 600 ft
2019/02/21 05:26 KMGE 210526Z AUTO 09006KT 9SM -RA OVC006 05/05 A3009 RMK AO2 CIG 004V006 CIG 005 RWY29 SLPNO $
KPDK - Peachtree/Dekalb, Georgia, USA
Distance from station: SSE 29mi, 47km
Updated: Wed, 20-Feb-2019 11:53pm EST
Light rain, Mist, Overcast
Light rain, Mist, Overcast
 Wind from varies
Wind: varies 5 mph , 7 km/h
Temperature: 41°F , 5°C
Wind Chill: 38°F , 3°C
Dew Point: 39°F , 4°C
Humidity: 93%
Barometer: 30.10 inHg , 1019.3 hPa
Summary: Light rain, Mist
Clouds: Overcast
Visibility: 6 miles , 10 km
Cloud details: Mostly cloudy 600 ft
Overcast 1300 ft
2019/02/21 04:53 KPDK 210453Z AUTO VRB04KT 6SM -RA BR BKN006 OVC013 05/04 A3010 RMK AO2 LTG DSNT ALQDS SLP204 P0012 T00500044 400560028
KFTY - Atlanta/Fulton, Georgia, USA
Distance from station: S 34mi, 54km
Updated: Wed, 20-Feb-2019 11:53pm EST
Light rain, Overcast
Light rain, Overcast
 Wind from NNE
Wind: NNE 3 mph , 6 km/h
Temperature: 45°F , 7°C
Dew Point: 43°F , 6°C
Humidity: 93%
Barometer: 30.10 inHg , 1019.3 hPa
Summary: Light rain
Clouds: Overcast
Visibility: 10 miles , 16 km
Cloud details: Mostly cloudy 600 ft
Overcast 1400 ft
2019/02/21 04:53 KFTY 210453Z 02003KT 10SM -RA BKN006 OVC014 07/06 A3010 RMK AO2 LTG DSNT NE-S CIG 004V008 SLP194 P0009 T00670061 400720039
 
KPUJ - Atlanta/Paulding, Georgia, USA
Distance from station: SW 34mi, 55km
Updated: Thu, 21-Feb-2019 12:35am EST
Thunderstorm
Thunderstorm
 Wind from SE
Wind: SE 7 mph , 11 km/h
Temperature: 43°F , 6°C
Wind Chill: 39°F , 4°C
Barometer: 30.06 inHg , 1017.9 hPa
Summary: Thunderstorm
2019/02/21 05:35 KPUJ 210535Z AUTO 14006KT TS 06/ A3006 RMK AO2 LTG DSNT NE AND SW
KDNN - Dalton, Georgia, USA
Distance from station: NW 37mi, 59km
Updated: Thu, 21-Feb-2019 12:35am EST
Mist, Overcast
Mist, Overcast
 Wind from calm
Wind: Calm
Temperature: 46°F , 8°C
Dew Point: 46°F , 8°C
Humidity: 100%
Barometer: 30.07 inHg , 1018.3 hPa
Summary: Mist
Clouds: Overcast
Visibility: 5 miles , 8 km
Cloud details: Overcast 1600 ft
2019/02/21 05:35 KDNN 210535Z AUTO 00000KT 5SM BR OVC016 08/08 A3007 RMK AO2 LTG DSNT E AND S
KLZU - Lawrenceville, Georgia, USA
Distance from station: ESE 37mi, 59km
Updated: Thu, 21-Feb-2019 12:20am EST
Light rain, Overcast
Light rain, Overcast
 Wind from ENE
Wind: ENE 6 mph , 9 km/h
Temperature: 39°F , 4°C
Wind Chill: 35°F , 2°C
Dew Point: 39°F , 4°C
Humidity: 100%
Barometer: 30.09 inHg , 1019 hPa
Summary: Light rain
Clouds: Overcast
Visibility: 10 miles , 16 km
Cloud details: Overcast 400 ft
2019/02/21 05:20 KLZU 210520Z AUTO 06005KT 10SM -RA OVC004 04/04 A3009 RMK AO2 TSE14 P0003
 
KRMG - Rome, Georgia, USA
Distance from station: W 38mi, 61km
Updated: Wed, 20-Feb-2019 11:53pm EST
Overcast
Overcast
 Wind from SSE
Wind: SSE 3 mph , 6 km/h
Temperature: 46°F , 8°C
Dew Point: 45°F , 7°C
Humidity: 93%
Barometer: 30.04 inHg , 1017.3 hPa
Clouds: Overcast
Visibility: 10 miles , 16 km
Cloud details: Overcast 900 ft
2019/02/21 04:53 KRMG 210453Z AUTO 15003KT 10SM OVC009 08/07 A3004 RMK AO2 RAE0359 CIG 007V012 SLP171 P0000 T00830067 400830050
KGVL - Gainesville, Georgia, USA
Distance from station: E 39mi, 62km
Updated: Thu, 21-Feb-2019 12:30am EST
Light rain, Overcast
Light rain, Overcast
 Wind from E
Wind: E 12 mph , 19 km/h
Temperature: 41°F , 5°C
Wind Chill: 34°F , 1°C
Dew Point: 41°F , 5°C
Humidity: 100%
Barometer: 30.08 inHg , 1018.6 hPa
Summary: Light rain
Clouds: Overcast
Visibility: 7 miles , 11 km
Cloud details: Mostly cloudy 400 ft
Overcast 1300 ft
2019/02/21 05:30 KGVL 210530Z AUTO 09010KT 7SM -RA BKN004 OVC013 05/05 A3008 RMK AO2 LTG DSNT NW PRESFR P0009 T00500050
KATL - Atlanta, Georgia, USA
Distance from station: S 44mi, 71km
Updated: Wed, 20-Feb-2019 11:52pm EST
Thunderstorm rain, Mist, Overcast
Thunderstorm rain, Mist, Overcast
 Wind from E
Wind: E 9 mph , 15 km/h
Temperature: 45°F , 7°C
Wind Chill: 40°F , 4°C
Dew Point: 43°F , 6°C
Humidity: 93%
Barometer: 30.08 inHg , 1018.6 hPa
Summary: Thunderstorm rain, Mist
Clouds: Overcast
Visibility: 1/2 mile , 0.8 km
Cloud details: Mostly cloudy 400 ft
Mostly cloudy 1000 ft
Overcast 3000 ft
2019/02/21 04:52 KATL 210452Z 09008KT 1/2SM R09R/P6000FT TSRA BR BKN004 BKN010CB OVC030 07/06 A3008 RMK AO2 SFC VIS 4 SLP190 OCNL LTGICCA OHD-SE TS OHD-SE MOV NE P0048 T00670056 400720039